Pagina principale
METAR-TAF:

METAR-TAF

Aeroporti :

Piattaforma petrolifera

Euro, Paesi Bassi

latitudine: 51-59-52N, longitudine: 3-16-30E, altezza: 18 m

Osservazione

Il bollettino è stato emesso 31 minuti fa, alle 06:55 UTC
Vento 8 kt da sud/sud-ovest
Temperature 8°C
Umidità 87%
Pressione 1009 hPa
Visibilità 10 km o più

METAR: EHSA 180655Z AUTO 21008KT 9999 ///////// 08/06 Q1009 W10/H9

Ora: 08:26 (07:26 UTC)


TAF: mancante

Osservazioni e previsioni meteorologiche di più di 4000 aeroporti (messaggi METAR e TAF).

Le stazioni disponibili sono rappresentate dai dischi gialli e rossi sulla carta.

Puntare il mouse per vedere il nome della stazione.

Clicca sopra per visualizzare le osservazioni e previsioni meteorologiche.

Per cambiare la mappa : fare clic sui pulsanti verdi con una croce nera per ingrandire, il pulsante verde con un trattino per diminuire, o sulla freccia verde per le mappe adiacenti.


METAR-TAF: